createdAt,value
2022-07-25T00:00:12.422Z,66.73
2022-07-25T00:02:38.793Z,66.80
2022-07-25T00:05:06.203Z,65.21
2022-07-25T00:07:32.637Z,65.57
2022-07-25T00:09:59.146Z,65.70
2022-07-25T00:12:25.660Z,66.97
2022-07-25T00:14:52.242Z,66.35
2022-07-25T00:17:18.605Z,67.47
2022-07-25T00:19:44.993Z,67.81
2022-07-25T00:22:11.341Z,66.71
2022-07-25T00:24:37.830Z,66.29
2022-07-25T00:27:04.481Z,66.57
2022-07-25T00:29:31.003Z,66.28
2022-07-25T00:31:57.367Z,67.05
2022-07-25T00:34:23.701Z,65.65
2022-07-25T00:36:50.085Z,66.21
2022-07-25T00:39:16.507Z,64.44
2022-07-25T00:41:44.332Z,65.25
2022-07-25T00:44:22.040Z,64.14
2022-07-25T00:46:52.047Z,63.13
2022-07-25T00:49:18.543Z,65.24
2022-07-25T00:51:45.531Z,66.61
2022-07-25T00:54:12.271Z,65.77
2022-07-25T00:56:39.617Z,66.33
2022-07-25T00:59:06.801Z,66.76
2022-07-25T01:01:33.456Z,65.49
2022-07-25T01:04:00.020Z,67.05
2022-07-25T01:06:27.122Z,66.59
2022-07-25T01:08:54.337Z,66.60
2022-07-25T01:11:22.019Z,66.08
2022-07-25T01:13:48.580Z,66.62
2022-07-25T01:16:15.039Z,66.71
2022-07-25T01:18:41.485Z,67.62
2022-07-25T01:21:08.279Z,66.50
2022-07-25T01:23:34.727Z,65.26
2022-07-25T01:26:01.131Z,67.18
2022-07-25T01:28:27.650Z,65.76
2022-07-25T01:30:54.051Z,66.71
2022-07-25T01:33:22.008Z,65.24
2022-07-25T01:35:49.127Z,66.33
2022-07-25T01:38:16.249Z,67.16
2022-07-25T01:40:43.957Z,67.38
2022-07-25T01:43:11.617Z,66.82
2022-07-25T01:45:38.237Z,67.96
2022-07-25T01:48:04.685Z,68.65
2022-07-25T01:50:31.081Z,68.00
2022-07-25T01:52:57.849Z,65.54
2022-07-25T01:55:24.263Z,69.13
2022-07-25T01:57:51.724Z,69.16
2022-07-25T02:00:18.641Z,68.80
2022-07-25T02:02:45.647Z,67.16
2022-07-25T02:05:13.864Z,68.98
2022-07-25T02:07:40.333Z,66.13
2022-07-25T02:10:07.941Z,68.38
2022-07-25T02:12:34.480Z,66.28
2022-07-25T02:15:00.845Z,67.15
2022-07-25T02:17:27.274Z,66.77
2022-07-25T02:19:53.756Z,66.31
2022-07-25T02:22:20.128Z,69.84
2022-07-25T02:24:46.477Z,68.97
2022-07-25T02:27:12.829Z,70.25
2022-07-25T02:29:39.265Z,67.52
2022-07-25T02:32:06.066Z,70.56
2022-07-25T02:34:32.570Z,71.54
2022-07-25T02:36:58.918Z,70.78
2022-07-25T02:39:25.385Z,68.70
2022-07-25T02:41:51.761Z,69.34
2022-07-25T02:44:18.133Z,71.10
2022-07-25T02:46:44.536Z,72.73
2022-07-25T02:49:11.704Z,71.71
2022-07-25T02:51:38.136Z,72.94
2022-07-25T02:54:04.534Z,73.26
2022-07-25T02:56:33.055Z,69.39
2022-07-25T02:58:59.489Z,68.68
2022-07-25T03:01:26.014Z,70.72
2022-07-25T03:03:52.648Z,70.41
2022-07-25T03:06:19.068Z,71.91
2022-07-25T03:08:45.414Z,71.73
2022-07-25T03:11:13.571Z,72.73
2022-07-25T03:13:40.043Z,71.55
2022-07-25T03:16:07.210Z,73.26
2022-07-25T03:18:33.615Z,72.37
2022-07-25T03:21:00.139Z,72.26
2022-07-25T03:23:28.118Z,71.83
2022-07-25T03:25:55.470Z,70.62
2022-07-25T03:28:21.976Z,71.48
2022-07-25T03:30:48.359Z,72.34
2022-07-25T03:33:14.784Z,71.17
2022-07-25T03:35:41.409Z,72.61
2022-07-25T03:38:07.789Z,71.19
2022-07-25T03:40:34.284Z,70.24
2022-07-25T03:43:00.709Z,69.22
2022-07-25T03:45:27.120Z,69.54
2022-07-25T03:47:53.548Z,71.55
2022-07-25T03:50:20.076Z,69.64
2022-07-25T03:52:46.526Z,69.54
2022-07-25T03:55:12.974Z,70.19
2022-07-25T03:57:39.730Z,68.97
2022-07-25T04:00:09.155Z,68.46
2022-07-25T04:02:37.771Z,68.48
2022-07-25T04:05:06.524Z,69.40
2022-07-25T04:07:33.064Z,68.32
2022-07-25T04:09:59.667Z,68.22
2022-07-25T04:12:26.560Z,67.60
2022-07-25T04:14:52.908Z,68.35
2022-07-25T04:17:19.491Z,71.51
2022-07-25T04:19:47.352Z,69.78
2022-07-25T04:22:13.958Z,71.21
2022-07-25T04:24:40.576Z,70.76
2022-07-25T04:27:06.985Z,72.54
2022-07-25T04:29:33.397Z,69.33
2022-07-25T04:31:59.849Z,69.19
2022-07-25T04:34:26.418Z,69.38
2022-07-25T04:36:52.886Z,67.45
2022-07-25T04:39:19.360Z,68.47
2022-07-25T04:41:45.725Z,67.55
2022-07-25T04:44:12.165Z,69.17
2022-07-25T04:46:40.156Z,69.38
2022-07-25T04:49:06.630Z,69.41
2022-07-25T04:51:33.062Z,70.02
2022-07-25T04:53:59.550Z,71.49
2022-07-25T04:56:25.943Z,70.03
2022-07-25T04:58:52.411Z,71.46
2022-07-25T05:01:18.853Z,68.36
2022-07-25T05:03:50.347Z,66.35
2022-07-25T05:06:18.095Z,68.22
2022-07-25T05:08:44.478Z,69.30
2022-07-25T05:11:10.924Z,68.40
2022-07-25T05:13:37.301Z,68.54
2022-07-25T05:16:03.906Z,71.91
2022-07-25T05:18:30.409Z,66.98
2022-07-25T05:20:56.786Z,69.02
2022-07-25T05:23:23.170Z,71.47
2022-07-25T05:25:49.551Z,71.76
2022-07-25T05:28:17.638Z,66.88
2022-07-25T05:30:44.137Z,69.06
2022-07-25T05:33:10.692Z,68.02
2022-07-25T05:35:37.389Z,69.16
2022-07-25T05:38:04.924Z,68.99
2022-07-25T05:40:31.388Z,71.18
2022-07-25T05:43:02.502Z,67.92
2022-07-25T05:45:29.598Z,69.39
2022-07-25T05:47:55.960Z,69.95
2022-07-25T05:50:22.385Z,69.39
2022-07-25T05:52:48.827Z,67.53
2022-07-25T05:55:15.798Z,69.32
2022-07-25T05:57:42.266Z,70.29
2022-07-25T06:00:09.352Z,69.82
2022-07-25T06:02:35.949Z,69.81
2022-07-25T06:05:02.905Z,70.93
2022-07-25T06:07:29.270Z,71.26
2022-07-25T06:09:55.624Z,68.67
2022-07-25T06:12:22.042Z,71.49
2022-07-25T06:14:50.896Z,68.50
2022-07-25T06:17:17.669Z,72.04
2022-07-25T06:19:44.048Z,68.87
2022-07-25T06:22:11.309Z,69.36
2022-07-25T06:24:38.198Z,67.39
2022-07-25T06:27:04.794Z,70.21
2022-07-25T06:29:31.205Z,70.64
2022-07-25T06:31:57.755Z,69.21
2022-07-25T06:34:28.505Z,70.35
2022-07-25T06:36:57.300Z,69.95
2022-07-25T06:39:24.721Z,66.39
2022-07-25T06:41:51.405Z,69.51
2022-07-25T06:44:17.797Z,70.98
2022-07-25T06:46:44.249Z,69.80
2022-07-25T06:49:10.833Z,67.82
2022-07-25T06:51:37.396Z,69.86
2022-07-25T06:54:04.162Z,67.60
2022-07-25T06:56:32.812Z,67.42
2022-07-25T06:58:59.965Z,63.10
2022-07-25T07:01:26.572Z,68.59
2022-07-25T07:03:53.235Z,67.55
2022-07-25T07:06:19.909Z,65.55
2022-07-25T07:08:46.387Z,63.88
2022-07-25T07:11:15.142Z,67.13
2022-07-25T07:13:41.641Z,67.51
2022-07-25T07:16:08.421Z,68.95
2022-07-25T07:18:34.874Z,69.02
2022-07-25T07:21:01.320Z,65.05
2022-07-25T07:23:29.011Z,65.39
2022-07-25T07:25:56.170Z,64.33
2022-07-25T07:28:22.686Z,64.02
2022-07-25T07:33:37.566Z,68.25
2022-07-25T07:36:04.153Z,62.19
2022-07-25T07:38:30.541Z,64.62
2022-07-25T07:40:56.915Z,62.28
2022-07-25T07:43:29.157Z,64.77
2022-07-25T07:45:59.333Z,63.33
2022-07-25T07:48:29.665Z,61.39
2022-07-25T07:50:56.666Z,65.13
2022-07-25T07:53:23.061Z,61.29
2022-07-25T07:55:55.045Z,63.25
2022-07-25T07:58:21.714Z,64.68
2022-07-25T08:00:51.436Z,62.25
2022-07-25T08:03:19.769Z,63.01
2022-07-25T08:05:48.403Z,58.59
2022-07-25T08:08:15.821Z,55.70
2022-07-25T08:10:44.884Z,55.13
2022-07-25T08:13:19.517Z,57.54
2022-07-25T08:15:48.263Z,57.25
2022-07-25T08:18:17.645Z,53.99
2022-07-25T08:20:45.555Z,51.91
2022-07-25T08:23:12.093Z,53.28
2022-07-25T08:25:39.752Z,50.86
2022-07-25T08:28:06.787Z,50.22
2022-07-25T08:30:34.437Z,52.83
2022-07-25T08:33:05.059Z,53.98
2022-07-25T08:35:32.701Z,50.14
2022-07-25T08:38:00.850Z,50.16
2022-07-25T08:40:29.016Z,49.11
2022-07-25T08:42:56.494Z,49.25
2022-07-25T08:45:23.169Z,47.40
2022-07-25T08:47:52.876Z,47.70
2022-07-25T08:50:25.008Z,47.22
2022-07-25T08:53:04.592Z,46.07
2022-07-25T08:55:39.351Z,47.77
2022-07-25T08:58:05.806Z,48.82
2022-07-25T09:00:33.233Z,47.34
2022-07-25T09:03:02.934Z,46.46
2022-07-25T09:05:31.521Z,46.88
2022-07-25T09:08:06.341Z,45.42
2022-07-25T09:10:32.813Z,44.41
2022-07-25T09:13:00.614Z,44.99
2022-07-25T09:15:30.953Z,44.32
2022-07-25T09:18:00.411Z,43.69
2022-07-25T09:20:43.214Z,43.80
2022-07-25T09:23:10.798Z,43.35
2022-07-25T09:25:38.447Z,41.86
2022-07-25T09:28:18.652Z,42.58
2022-07-25T09:31:00.604Z,42.29
2022-07-25T09:33:28.718Z,43.72
2022-07-25T09:35:56.278Z,42.86
2022-07-25T09:38:24.061Z,42.28
2022-07-25T09:41:01.782Z,42.51
2022-07-25T09:43:44.402Z,42.12
2022-07-25T09:46:12.336Z,40.84
2022-07-25T09:48:43.863Z,40.76
2022-07-25T09:51:10.280Z,40.56
2022-07-25T09:53:36.670Z,41.35
2022-07-25T09:56:03.082Z,42.30
2022-07-25T09:58:29.922Z,43.12
2022-07-25T10:01:02.268Z,43.20
2022-07-25T10:03:51.449Z,43.43
2022-07-25T10:06:36.444Z,43.87
2022-07-25T10:09:03.237Z,45.19
2022-07-25T10:11:32.606Z,45.53
2022-07-25T10:14:11.139Z,46.24
2022-07-25T10:16:48.546Z,47.95
2022-07-25T10:19:15.409Z,46.86
2022-07-25T10:21:42.273Z,48.17
2022-07-25T10:24:10.615Z,48.09
2022-07-25T10:26:39.904Z,48.95
2022-07-25T10:29:10.859Z,50.97
2022-07-25T10:31:44.905Z,51.89
2022-07-25T10:34:14.393Z,56.79
2022-07-25T10:36:49.403Z,55.94
2022-07-25T10:39:19.066Z,56.10
2022-07-25T10:41:54.189Z,54.56
2022-07-25T10:44:21.243Z,56.89
2022-07-25T10:46:48.796Z,55.47
2022-07-25T10:49:32.065Z,55.44
2022-07-25T10:52:00.929Z,53.54
2022-07-25T10:54:36.849Z,53.48
2022-07-25T10:57:05.337Z,52.62
2022-07-25T10:59:36.937Z,48.47
2022-07-25T11:02:06.466Z,47.95
2022-07-25T11:04:33.499Z,48.48
2022-07-25T11:07:10.701Z,51.65
2022-07-25T11:09:38.008Z,48.07
2022-07-25T11:12:05.066Z,46.86
2022-07-25T11:14:37.870Z,45.36
2022-07-25T11:17:22.432Z,43.11
2022-07-25T11:20:02.392Z,41.80
2022-07-25T11:22:30.382Z,41.95
2022-07-25T11:24:58.197Z,39.81
2022-07-25T11:27:26.170Z,39.30
2022-07-25T11:29:53.181Z,41.26
2022-07-25T11:32:20.251Z,41.75
2022-07-25T11:34:49.841Z,43.00
2022-07-25T11:37:19.079Z,44.72
2022-07-25T11:39:47.957Z,43.39
2022-07-25T11:42:19.100Z,45.52
2022-07-25T11:44:54.745Z,42.70
2022-07-25T11:47:29.896Z,41.88
2022-07-25T11:50:02.102Z,42.22
2022-07-25T11:52:37.069Z,42.50
2022-07-25T11:55:08.431Z,42.26
2022-07-25T11:57:40.175Z,41.78
2022-07-25T12:00:10.138Z,42.53
2022-07-25T12:02:36.985Z,44.27
2022-07-25T12:05:09.346Z,43.67
2022-07-25T12:07:50.991Z,43.47
2022-07-25T12:10:21.655Z,43.05
2022-07-25T12:12:55.799Z,44.04
2022-07-25T12:15:23.694Z,41.01
2022-07-25T12:17:52.298Z,42.60
2022-07-25T12:20:27.577Z,43.08
2022-07-25T12:22:57.990Z,43.23
2022-07-25T12:25:30.443Z,43.41
2022-07-25T12:27:58.716Z,43.08
2022-07-25T12:30:29.919Z,43.08
2022-07-25T12:32:58.066Z,44.57
2022-07-25T12:35:24.927Z,42.89
2022-07-25T12:37:52.290Z,42.29
2022-07-25T12:40:19.406Z,43.00
2022-07-25T12:42:48.305Z,42.65
2022-07-25T12:45:17.124Z,43.30
2022-07-25T12:47:45.102Z,43.60
2022-07-25T12:50:12.182Z,43.56
2022-07-25T12:52:38.608Z,43.66
2022-07-25T12:55:11.067Z,43.34
2022-07-25T12:57:37.989Z,43.65
2022-07-25T13:00:07.306Z,43.44
2022-07-25T13:02:33.826Z,42.50
2022-07-25T13:05:00.382Z,42.24
2022-07-25T13:07:27.536Z,43.99
2022-07-25T13:09:54.232Z,43.13
2022-07-25T13:12:22.861Z,41.81
2022-07-25T13:14:49.566Z,43.46
2022-07-25T13:17:15.936Z,43.39
2022-07-25T13:19:42.324Z,44.24
2022-07-25T13:22:08.939Z,43.23
2022-07-25T13:24:35.418Z,45.30
2022-07-25T13:27:08.276Z,46.09
2022-07-25T13:29:35.339Z,44.13
2022-07-25T13:32:02.894Z,44.67
2022-07-25T13:34:30.827Z,44.84
2022-07-25T13:36:57.439Z,46.77
2022-07-25T13:39:24.094Z,46.50
2022-07-25T13:41:50.717Z,45.86
2022-07-25T13:44:17.203Z,47.32
2022-07-25T13:46:46.369Z,46.50
2022-07-25T13:49:13.195Z,47.23
2022-07-25T13:51:39.699Z,46.80
2022-07-25T13:54:06.216Z,47.12
2022-07-25T13:56:33.311Z,45.71
2022-07-25T13:58:59.989Z,46.64
2022-07-25T14:01:28.685Z,46.74
2022-07-25T14:03:55.601Z,46.47
2022-07-25T14:06:22.188Z,47.00
2022-07-25T14:08:48.860Z,47.42
2022-07-25T14:11:15.378Z,46.85
2022-07-25T14:13:43.579Z,46.55
2022-07-25T14:16:10.120Z,46.85
2022-07-25T14:18:36.644Z,47.16
2022-07-25T14:21:03.239Z,47.71
2022-07-25T14:23:30.316Z,45.54
2022-07-25T14:25:58.509Z,46.77
2022-07-25T14:28:25.634Z,44.91
2022-07-25T14:30:52.415Z,45.92
2022-07-25T14:33:19.136Z,45.98
2022-07-25T14:35:45.610Z,46.62
2022-07-25T14:38:12.540Z,45.29
2022-07-25T14:40:41.423Z,46.11
2022-07-25T14:43:08.468Z,45.59
2022-07-25T14:45:36.932Z,46.82
2022-07-25T14:48:05.958Z,46.02
2022-07-25T14:50:32.512Z,46.14
2022-07-25T14:52:58.973Z,45.73
2022-07-25T14:55:25.735Z,45.41
2022-07-25T14:57:52.226Z,46.35
2022-07-25T15:00:18.799Z,47.14
2022-07-25T15:02:45.272Z,46.77
2022-07-25T15:05:11.780Z,47.30
2022-07-25T15:07:38.564Z,47.63
2022-07-25T15:10:05.459Z,49.46
2022-07-25T15:12:31.885Z,48.28
2022-07-25T15:14:58.421Z,48.27
2022-07-25T15:17:25.023Z,49.47
2022-07-25T15:19:51.494Z,50.80
2022-07-25T15:22:17.970Z,52.27
2022-07-25T15:25:17.870Z,52.79
2022-07-25T15:27:31.395Z,51.97
2022-07-25T15:29:57.887Z,52.28
2022-07-25T15:32:24.343Z,51.19
2022-07-25T15:34:50.781Z,52.18
2022-07-25T15:37:17.268Z,51.67
2022-07-25T15:39:45.287Z,51.89
2022-07-25T15:42:11.964Z,52.62
2022-07-25T15:44:38.351Z,51.63
2022-07-25T15:47:06.730Z,51.52
2022-07-25T15:49:33.299Z,51.86
2022-07-25T15:52:00.122Z,52.63
2022-07-25T15:54:29.533Z,53.25
2022-07-25T15:56:56.242Z,54.39
2022-07-25T15:59:22.620Z,54.54
2022-07-25T16:01:48.990Z,54.35
2022-07-25T16:04:15.570Z,55.74
2022-07-25T16:06:42.558Z,54.71
2022-07-25T16:09:09.145Z,54.66
2022-07-25T16:11:38.164Z,54.81
2022-07-25T16:14:05.313Z,54.31
2022-07-25T16:16:31.814Z,53.70
2022-07-25T16:18:58.289Z,53.45
2022-07-25T16:21:24.663Z,53.86
2022-07-25T16:23:51.109Z,53.01
2022-07-25T16:26:17.756Z,53.59
2022-07-25T16:28:44.217Z,51.89
2022-07-25T16:31:10.818Z,52.05
2022-07-25T16:33:37.376Z,50.25
2022-07-25T16:36:04.704Z,49.92
2022-07-25T16:38:31.615Z,49.96
2022-07-25T16:40:57.989Z,49.94
2022-07-25T16:43:24.762Z,48.80
2022-07-25T16:45:51.454Z,47.61
2022-07-25T16:48:17.843Z,46.38
2022-07-25T16:50:44.209Z,44.61
2022-07-25T16:53:10.584Z,45.22
2022-07-25T16:55:36.955Z,44.96
2022-07-25T16:58:03.508Z,45.27
2022-07-25T17:00:30.262Z,44.66
2022-07-25T17:02:56.666Z,45.51
2022-07-25T17:05:23.180Z,45.86
2022-07-25T17:07:54.560Z,47.08
2022-07-25T17:10:25.206Z,47.27
2022-07-25T17:12:51.573Z,47.46
2022-07-25T17:15:18.110Z,47.92
2022-07-25T17:17:44.486Z,48.96
2022-07-25T17:20:11.411Z,48.49
2022-07-25T17:22:38.868Z,48.60
2022-07-25T17:25:05.917Z,48.02
2022-07-25T17:27:32.441Z,47.78
2022-07-25T17:29:58.906Z,47.90
2022-07-25T17:32:29.656Z,48.14
2022-07-25T17:34:56.312Z,47.71
2022-07-25T17:37:24.168Z,48.31
2022-07-25T17:39:50.609Z,48.09
2022-07-25T17:42:22.025Z,48.45
2022-07-25T17:44:50.253Z,47.74
2022-07-25T17:47:17.170Z,48.36
2022-07-25T17:49:44.077Z,48.53
2022-07-25T17:52:13.689Z,48.65
2022-07-25T17:54:40.118Z,49.25
2022-07-25T17:57:06.907Z,48.99
2022-07-25T17:59:34.274Z,48.80
2022-07-25T18:02:02.142Z,49.40
2022-07-25T18:04:28.631Z,49.04
2022-07-25T18:06:55.055Z,48.94
2022-07-25T18:09:21.483Z,48.79
2022-07-25T18:11:47.867Z,48.55
2022-07-25T18:14:14.296Z,49.33
2022-07-25T18:16:41.391Z,49.73
2022-07-25T18:19:08.045Z,49.31
2022-07-25T18:21:34.374Z,49.50
2022-07-25T18:24:00.819Z,50.25
2022-07-25T18:26:28.240Z,50.38
2022-07-25T18:28:54.890Z,50.88
2022-07-25T18:31:21.249Z,50.83
2022-07-25T18:33:47.633Z,50.99
2022-07-25T18:36:13.982Z,50.88
2022-07-25T18:38:40.634Z,50.67
2022-07-25T18:41:28.104Z,50.37
2022-07-25T18:43:53.905Z,50.02
2022-07-25T18:46:20.835Z,50.14
2022-07-25T18:48:47.327Z,49.83
2022-07-25T18:51:13.751Z,49.82
2022-07-25T18:53:41.935Z,49.29
2022-07-25T18:56:11.246Z,49.68
2022-07-25T18:58:37.629Z,48.63
2022-07-25T19:01:04.096Z,49.58
2022-07-25T19:03:32.708Z,48.71
2022-07-25T19:06:03.222Z,49.61
2022-07-25T19:08:30.631Z,49.81
2022-07-25T19:10:56.972Z,50.16
2022-07-25T19:13:47.807Z,50.40
2022-07-25T19:16:13.030Z,50.68
2022-07-25T19:18:40.145Z,50.49
2022-07-25T19:21:07.164Z,50.41
2022-07-25T19:23:33.984Z,50.64
2022-07-25T19:26:01.270Z,51.51
2022-07-25T19:28:28.895Z,50.97
2022-07-25T19:30:56.966Z,51.23
2022-07-25T19:33:24.255Z,50.48
2022-07-25T19:35:50.756Z,50.95
2022-07-25T19:38:18.998Z,50.89
2022-07-25T19:40:45.633Z,50.58
2022-07-25T19:43:12.378Z,51.08
2022-07-25T19:45:39.299Z,50.95
2022-07-25T19:48:06.339Z,50.63
2022-07-25T19:50:32.967Z,50.23
2022-07-25T19:53:00.240Z,50.19
2022-07-25T19:55:27.928Z,50.39
2022-07-25T19:57:54.314Z,50.81
2022-07-25T20:00:20.701Z,50.86
2022-07-25T20:02:47.242Z,51.18
2022-07-25T20:05:14.999Z,50.91
2022-07-25T20:07:41.629Z,51.96
2022-07-25T20:10:08.616Z,52.46
2022-07-25T20:12:35.166Z,52.40
2022-07-25T20:15:02.045Z,51.74
2022-07-25T20:17:28.686Z,51.44
2022-07-25T20:19:55.068Z,51.88
2022-07-25T20:22:21.577Z,52.06
2022-07-25T20:24:48.054Z,51.72
2022-07-25T20:27:14.507Z,52.38
2022-07-25T20:29:40.988Z,52.74
2022-07-25T20:32:07.430Z,51.94
2022-07-25T20:34:33.918Z,52.62
2022-07-25T20:37:00.300Z,52.58
2022-07-25T20:39:28.802Z,52.71
2022-07-25T20:41:55.291Z,52.74
2022-07-25T20:44:21.661Z,52.92
2022-07-25T20:46:48.064Z,53.06
2022-07-25T20:49:14.506Z,53.46
2022-07-25T20:51:41.012Z,53.11
2022-07-25T20:54:07.777Z,53.31
2022-07-25T20:56:34.135Z,53.67
2022-07-25T20:59:00.530Z,53.92
2022-07-25T21:01:26.943Z,53.68
2022-07-25T21:03:53.373Z,53.98
2022-07-25T21:06:19.756Z,54.53
2022-07-25T21:08:53.366Z,54.17
2022-07-25T21:11:19.779Z,54.70
2022-07-25T21:13:46.232Z,54.55
2022-07-25T21:16:12.712Z,55.02
2022-07-25T21:18:39.247Z,55.02
2022-07-25T21:21:07.731Z,55.12
2022-07-25T21:23:38.703Z,55.71
2022-07-25T21:26:05.066Z,55.14
2022-07-25T21:28:31.437Z,55.14
2022-07-25T21:30:57.803Z,55.62
2022-07-25T21:33:24.164Z,55.73
2022-07-25T21:35:53.723Z,55.38
2022-07-25T21:38:26.490Z,56.34
2022-07-25T21:40:54.462Z,56.16
2022-07-25T21:43:20.994Z,56.43
2022-07-25T21:45:48.003Z,55.47
2022-07-25T21:48:14.522Z,55.78
2022-07-25T21:50:43.886Z,56.35
2022-07-25T21:53:12.935Z,55.84
2022-07-25T21:55:40.499Z,55.86
2022-07-25T21:58:07.670Z,56.11
2022-07-25T22:00:37.649Z,56.25
2022-07-25T22:03:07.797Z,55.88
2022-07-25T22:05:34.166Z,56.50
2022-07-25T22:08:00.545Z,56.00
2022-07-25T22:10:27.006Z,56.08
2022-07-25T22:12:53.491Z,55.85
2022-07-25T22:15:19.891Z,55.78
2022-07-25T22:17:49.673Z,56.05
2022-07-25T22:20:17.633Z,55.81
2022-07-25T22:22:44.032Z,56.49
2022-07-25T22:25:10.435Z,56.53
2022-07-25T22:27:36.805Z,57.10
2022-07-25T22:30:04.977Z,57.30
2022-07-25T22:32:31.422Z,56.67
2022-07-25T22:34:57.778Z,57.34
2022-07-25T22:37:24.204Z,57.23
2022-07-25T22:39:51.720Z,57.34
2022-07-25T22:42:20.283Z,57.70
2022-07-25T22:44:46.668Z,58.06
2022-07-25T22:47:13.227Z,58.19
2022-07-25T22:49:39.651Z,57.71
2022-07-25T22:52:07.741Z,58.05
2022-07-25T22:54:35.321Z,58.28
2022-07-25T22:57:01.788Z,58.65
2022-07-25T22:59:28.259Z,58.30
2022-07-25T23:01:55.338Z,58.89
2022-07-25T23:04:21.757Z,58.38
2022-07-25T23:06:48.239Z,59.23
2022-07-25T23:09:14.736Z,59.42
2022-07-25T23:11:41.149Z,59.76
2022-07-25T23:14:07.554Z,60.26
2022-07-25T23:16:34.041Z,60.54
2022-07-25T23:19:00.493Z,60.54
2022-07-25T23:21:26.887Z,61.33
2022-07-25T23:23:55.145Z,61.88
2022-07-25T23:26:21.576Z,62.50
2022-07-25T23:28:47.952Z,62.23
2022-07-25T23:31:14.479Z,63.12
2022-07-25T23:33:40.954Z,62.41
2022-07-25T23:36:07.595Z,62.95
2022-07-25T23:38:33.975Z,63.90
2022-07-25T23:41:00.400Z,63.60
2022-07-25T23:43:55.511Z,64.29
2022-07-25T23:46:13.181Z,63.71
2022-07-25T23:48:39.677Z,63.54
2022-07-25T23:51:06.808Z,63.82
2022-07-25T23:53:34.823Z,64.35
2022-07-25T23:56:01.285Z,64.03
2022-07-25T23:58:27.660Z,64.00
